createdAt,value
2022-12-13T00:01:47.615Z,11.87
2022-12-13T00:04:15.101Z,12.80
2022-12-13T00:06:42.919Z,12.00
2022-12-13T00:09:13.936Z,11.70
2022-12-13T00:11:41.328Z,11.70
2022-12-13T00:14:08.711Z,11.60
2022-12-13T00:16:36.034Z,11.90
2022-12-13T00:19:03.486Z,12.50
2022-12-13T00:21:32.541Z,12.17
2022-12-13T00:24:01.075Z,13.17
2022-12-13T00:26:32.927Z,12.77
2022-12-13T00:29:02.127Z,11.83
2022-12-13T00:34:19.939Z,11.93
2022-12-13T00:36:48.127Z,11.53
2022-12-13T00:39:19.381Z,11.67
2022-12-13T00:41:49.538Z,9.40
2022-12-13T00:44:16.989Z,10.63
2022-12-13T00:46:44.345Z,10.60
2022-12-13T00:49:13.013Z,11.43
2022-12-13T00:51:41.683Z,10.93
2022-12-13T00:54:10.106Z,11.20
2022-12-13T00:56:38.419Z,11.90
2022-12-13T00:59:05.715Z,11.47
2022-12-13T01:01:36.659Z,12.20
2022-12-13T01:04:05.679Z,10.80
2022-12-13T01:06:44.948Z,11.00
2022-12-13T01:09:19.712Z,12.00
2022-12-13T01:11:50.208Z,11.83
2022-12-13T01:14:18.574Z,11.10
2022-12-13T01:16:47.373Z,11.30
2022-12-13T01:19:14.736Z,12.03
2022-12-13T01:21:42.090Z,11.63
2022-12-13T01:24:11.375Z,11.97
2022-12-13T01:26:38.733Z,11.23
2022-12-13T01:29:06.085Z,11.30
2022-12-13T01:31:33.923Z,10.80
2022-12-13T01:34:13.380Z,12.17
2022-12-13T01:36:42.556Z,11.60
2022-12-13T01:39:15.223Z,12.03
2022-12-13T01:41:59.452Z,12.00
2022-12-13T01:44:52.161Z,11.67
2022-12-13T01:47:25.409Z,10.60
2022-12-13T01:49:56.000Z,12.30
2022-12-13T01:52:30.043Z,11.27
2022-12-13T01:55:15.604Z,10.80
2022-12-13T01:57:45.992Z,11.40
2022-12-13T02:00:15.235Z,11.17
2022-12-13T02:02:46.260Z,11.20
2022-12-13T02:05:40.101Z,10.97
2022-12-13T02:08:10.553Z,10.97
2022-12-13T02:10:38.928Z,11.20
2022-12-13T02:13:06.201Z,10.97
2022-12-13T02:16:11.946Z,11.00
2022-12-13T02:18:53.525Z,11.43
2022-12-13T02:21:33.557Z,12.50
2022-12-13T02:24:37.917Z,13.43
2022-12-13T02:27:42.828Z,12.53
2022-12-13T02:30:22.958Z,12.60
2022-12-13T02:33:21.692Z,11.77
2022-12-13T02:36:08.369Z,12.90
2022-12-13T02:38:58.355Z,13.63
2022-12-13T02:41:44.109Z,13.77
2022-12-13T02:44:22.437Z,12.90
2022-12-13T02:47:12.686Z,14.07
2022-12-13T02:49:48.470Z,13.03
2022-12-13T02:52:22.403Z,13.17
2022-12-13T02:54:50.030Z,13.73
2022-12-13T02:57:28.527Z,14.17
2022-12-13T03:00:00.351Z,14.20
2022-12-13T03:02:49.342Z,13.87
2022-12-13T03:06:06.232Z,14.73
2022-12-13T03:08:48.334Z,14.90
2022-12-13T03:11:18.371Z,15.20
2022-12-13T03:13:54.899Z,14.90
2022-12-13T03:16:32.549Z,14.63
2022-12-13T03:19:02.667Z,14.47
2022-12-13T03:21:30.672Z,14.00
2022-12-13T03:23:57.902Z,14.53
2022-12-13T03:26:27.386Z,15.63
2022-12-13T03:28:55.070Z,14.20
2022-12-13T03:31:22.824Z,14.57
2022-12-13T03:33:50.166Z,14.43
2022-12-13T03:36:20.159Z,14.03
2022-12-13T03:38:52.331Z,14.07
2022-12-13T03:41:24.015Z,13.20
2022-12-13T03:43:53.698Z,13.70
2022-12-13T03:46:21.062Z,14.70
2022-12-13T03:48:48.393Z,14.17
2022-12-13T03:51:15.657Z,13.70
2022-12-13T03:53:44.459Z,13.17
2022-12-13T03:56:11.798Z,14.57
2022-12-13T03:58:42.067Z,14.60
2022-12-13T04:01:13.405Z,13.73
2022-12-13T04:03:43.106Z,14.50
2022-12-13T04:06:11.492Z,12.50
2022-12-13T04:08:39.653Z,13.63
2022-12-13T04:11:26.425Z,12.77
2022-12-13T04:13:54.310Z,14.13
2022-12-13T04:16:22.709Z,14.03
2022-12-13T04:18:50.046Z,13.67
2022-12-13T04:21:17.245Z,13.53
2022-12-13T04:23:44.555Z,12.87
2022-12-13T04:26:11.941Z,14.07
2022-12-13T04:28:39.367Z,13.57
2022-12-13T04:31:06.880Z,13.63
2022-12-13T04:33:34.409Z,12.53
2022-12-13T04:36:05.239Z,13.30
2022-12-13T04:38:32.567Z,15.07
2022-12-13T04:41:07.722Z,14.27
2022-12-13T04:43:35.014Z,13.80
2022-12-13T04:46:02.288Z,13.13
2022-12-13T04:48:30.421Z,14.37
2022-12-13T04:51:01.332Z,14.17
2022-12-13T04:53:29.747Z,13.13
2022-12-13T04:55:57.148Z,13.60
2022-12-13T04:58:24.790Z,13.50
2022-12-13T05:00:52.352Z,13.00
2022-12-13T05:03:19.603Z,14.23
2022-12-13T05:05:52.306Z,13.57
2022-12-13T05:08:19.888Z,15.10
2022-12-13T05:10:47.241Z,15.17
2022-12-13T05:13:14.487Z,13.50
2022-12-13T05:15:41.779Z,14.40
2022-12-13T05:18:11.126Z,14.33
2022-12-13T05:20:39.710Z,15.70
2022-12-13T05:23:07.278Z,14.63
2022-12-13T05:25:36.923Z,13.63
2022-12-13T05:28:27.244Z,13.47
2022-12-13T05:30:53.882Z,14.80
2022-12-13T05:33:23.038Z,16.77
2022-12-13T05:35:52.948Z,15.33
2022-12-13T05:38:23.598Z,14.77
2022-12-13T05:40:50.875Z,15.00
2022-12-13T05:43:21.864Z,13.77
2022-12-13T05:45:50.916Z,13.10
2022-12-13T05:48:24.422Z,12.60
2022-12-13T05:51:10.701Z,13.60
2022-12-13T05:53:42.633Z,13.13
2022-12-13T05:56:11.509Z,13.40
2022-12-13T05:58:42.382Z,13.97
2022-12-13T06:01:12.211Z,14.00
2022-12-13T06:03:40.368Z,13.30
2022-12-13T06:06:09.295Z,14.27
2022-12-13T06:08:37.320Z,14.63
2022-12-13T06:11:10.293Z,14.33
2022-12-13T06:13:43.961Z,12.67
2022-12-13T06:16:23.525Z,13.40
2022-12-13T06:19:01.286Z,13.50
2022-12-13T06:21:41.246Z,13.50
2022-12-13T06:24:11.147Z,14.03
2022-12-13T06:26:38.484Z,13.60
2022-12-13T06:29:05.870Z,13.80
2022-12-13T06:31:33.232Z,13.10
2022-12-13T06:34:14.731Z,13.87
2022-12-13T06:36:43.281Z,14.67
2022-12-13T06:39:10.507Z,14.33
2022-12-13T06:41:37.897Z,14.20
2022-12-13T06:44:05.530Z,15.00
2022-12-13T06:46:33.237Z,14.73
2022-12-13T06:49:03.722Z,14.50
2022-12-13T06:51:33.949Z,13.87
2022-12-13T06:54:04.586Z,13.63
2022-12-13T06:56:32.743Z,15.07
2022-12-13T06:59:01.466Z,13.80
2022-12-13T07:01:36.999Z,14.70
2022-12-13T07:04:29.362Z,13.17
2022-12-13T07:07:01.174Z,13.17
2022-12-13T07:09:33.293Z,13.73
2022-12-13T07:12:00.943Z,13.03
2022-12-13T07:14:28.515Z,13.17
2022-12-13T07:17:03.223Z,14.40
2022-12-13T07:19:35.413Z,15.10
2022-12-13T07:22:06.157Z,15.13
2022-12-13T07:24:34.818Z,17.77
2022-12-13T07:27:03.451Z,17.90
2022-12-13T07:29:31.075Z,17.43
2022-12-13T07:32:01.161Z,16.50
2022-12-13T07:34:30.365Z,16.07
2022-12-13T07:36:57.959Z,16.20
2022-12-13T07:39:26.422Z,16.00
2022-12-13T07:41:55.926Z,18.33
2022-12-13T07:44:24.648Z,17.43
2022-12-13T07:46:52.040Z,16.50
2022-12-13T07:49:19.407Z,16.60
2022-12-13T07:51:48.069Z,17.37
2022-12-13T07:54:15.398Z,17.80
2022-12-13T07:56:42.671Z,17.30
2022-12-13T07:59:11.280Z,16.47
2022-12-13T08:01:38.817Z,19.10
2022-12-13T08:04:06.456Z,19.73
2022-12-13T08:06:38.120Z,16.47
2022-12-13T08:09:06.392Z,15.93
2022-12-13T08:11:33.801Z,17.27
2022-12-13T08:14:01.277Z,14.87
2022-12-13T08:16:30.296Z,15.03
2022-12-13T08:19:02.726Z,16.10
2022-12-13T08:21:56.724Z,16.37
2022-12-13T08:24:26.559Z,16.33
2022-12-13T08:26:55.423Z,17.83
2022-12-13T08:29:33.941Z,16.20
2022-12-13T08:32:11.016Z,15.50
2022-12-13T08:34:39.375Z,15.03
2022-12-13T08:37:06.738Z,16.43
2022-12-13T08:39:36.463Z,15.07
2022-12-13T08:42:14.718Z,15.57
2022-12-13T08:44:46.716Z,17.00
2022-12-13T08:47:22.925Z,15.87
2022-12-13T08:50:02.318Z,15.50
2022-12-13T08:52:39.242Z,15.37
2022-12-13T08:55:10.394Z,14.50
2022-12-13T08:57:38.777Z,15.60
2022-12-13T09:00:07.111Z,14.97
2022-12-13T09:02:38.217Z,14.87
2022-12-13T09:05:07.476Z,14.93
2022-12-13T09:07:36.100Z,15.50
2022-12-13T09:10:07.332Z,15.47
2022-12-13T09:13:01.300Z,13.67
2022-12-13T09:15:34.212Z,14.43
2022-12-13T09:18:04.252Z,14.23
2022-12-13T09:20:41.481Z,13.50
2022-12-13T09:23:14.027Z,13.63
2022-12-13T09:26:05.491Z,13.50
2022-12-13T09:28:37.216Z,13.10
2022-12-13T09:31:13.528Z,14.57
2022-12-13T09:33:42.010Z,12.87
2022-12-13T09:36:18.152Z,14.27
2022-12-13T09:38:46.286Z,14.07
2022-12-13T09:41:28.578Z,15.17
2022-12-13T09:44:32.784Z,13.83
2022-12-13T09:47:04.258Z,13.70
2022-12-13T09:49:52.031Z,14.07
2022-12-13T09:52:25.055Z,13.30
2022-12-13T09:54:55.592Z,12.87
2022-12-13T09:57:34.670Z,13.57
2022-12-13T10:00:06.982Z,12.40
2022-12-13T10:02:50.401Z,13.87
2022-12-13T10:05:43.849Z,13.17
2022-12-13T10:08:16.738Z,13.27
2022-12-13T10:10:44.300Z,13.67
2022-12-13T10:13:19.716Z,12.67
2022-12-13T10:16:03.840Z,11.80
2022-12-13T10:18:37.652Z,11.63
2022-12-13T10:21:26.833Z,11.77
2022-12-13T10:24:25.837Z,12.57
2022-12-13T10:26:51.672Z,11.83
2022-12-13T10:29:19.668Z,12.07
2022-12-13T10:31:49.080Z,12.27
2022-12-13T10:34:35.500Z,12.00
2022-12-13T10:37:26.017Z,12.33
2022-12-13T10:39:53.180Z,12.07
2022-12-13T10:42:23.586Z,12.03
2022-12-13T10:45:23.969Z,12.63
2022-12-13T10:47:52.070Z,12.43
2022-12-13T10:50:28.494Z,11.63
2022-12-13T10:52:57.649Z,11.70
2022-12-13T10:55:37.835Z,11.77
2022-12-13T10:58:18.030Z,12.47
2022-12-13T11:00:47.357Z,12.73
2022-12-13T11:03:30.900Z,12.67
2022-12-13T11:06:14.819Z,11.67
2022-12-13T11:08:42.217Z,12.37
2022-12-13T11:11:10.965Z,12.77
2022-12-13T11:13:45.310Z,16.07
2022-12-13T11:16:27.766Z,12.60
2022-12-13T11:18:58.314Z,12.43
2022-12-13T11:21:28.624Z,13.03
2022-12-13T11:24:01.980Z,11.83
2022-12-13T11:26:32.559Z,11.83
2022-12-13T11:29:12.348Z,10.77
2022-12-13T11:31:56.230Z,10.40
2022-12-13T11:34:47.432Z,10.23
2022-12-13T11:37:32.078Z,10.57
2022-12-13T11:40:15.490Z,10.67
2022-12-13T11:42:48.545Z,11.00
2022-12-13T11:45:24.320Z,10.37
2022-12-13T11:48:01.612Z,10.17
2022-12-13T11:50:46.603Z,9.60
2022-12-13T11:53:23.454Z,9.30
2022-12-13T11:56:05.822Z,9.63
2022-12-13T11:59:20.740Z,10.17
2022-12-13T12:02:21.521Z,12.03
2022-12-13T12:04:58.344Z,12.97
2022-12-13T12:08:21.199Z,15.70
2022-12-13T12:10:45.647Z,17.47
2022-12-13T12:13:33.285Z,17.40
2022-12-13T12:16:10.598Z,17.70
2022-12-13T12:18:37.828Z,17.23
2022-12-13T12:24:55.023Z,17.00
2022-12-13T12:27:25.122Z,17.83
2022-12-13T12:29:58.114Z,16.50
2022-12-13T12:32:41.232Z,19.30
2022-12-13T12:35:45.944Z,18.80
2022-12-13T12:38:44.243Z,16.27
2022-12-13T12:41:32.954Z,34.13
2022-12-13T12:44:18.706Z,17.20
2022-12-13T12:47:36.204Z,72.70
2022-12-13T12:50:34.098Z,23.03
2022-12-13T12:53:15.391Z,16.93
2022-12-13T12:56:03.580Z,20.33
2022-12-13T12:58:40.085Z,17.13
2022-12-13T13:01:37.678Z,16.47
2022-12-13T13:04:14.082Z,15.83
2022-12-13T13:07:03.903Z,15.97
2022-12-13T13:09:31.920Z,16.80
2022-12-13T13:12:29.307Z,18.53
2022-12-13T13:14:51.211Z,16.53
2022-12-13T13:17:41.721Z,36.03
2022-12-13T13:20:23.596Z,20.10
2022-12-13T13:23:10.354Z,15.47
2022-12-13T13:26:07.512Z,16.40
2022-12-13T13:28:30.509Z,16.37
2022-12-13T13:31:05.303Z,16.57
2022-12-13T13:33:48.271Z,15.90
2022-12-13T13:36:41.174Z,16.83
2022-12-13T13:39:19.586Z,16.77
2022-12-13T13:41:52.568Z,29.40
2022-12-13T13:44:50.300Z,35.03
2022-12-13T13:47:20.592Z,19.70
2022-12-13T13:50:06.625Z,16.97
2022-12-13T13:52:57.959Z,14.77
2022-12-13T13:55:47.502Z,14.97
2022-12-13T13:58:48.107Z,16.07
2022-12-13T14:01:33.668Z,16.47
2022-12-13T14:04:34.035Z,14.80
2022-12-13T14:07:42.879Z,14.80
2022-12-13T14:10:26.226Z,15.30
2022-12-13T14:13:02.574Z,15.83
2022-12-13T14:15:59.961Z,14.67
2022-12-13T14:18:41.008Z,15.23
2022-12-13T14:21:37.377Z,13.20
2022-12-13T14:24:19.107Z,11.70
2022-12-13T14:26:56.631Z,11.33
2022-12-13T14:29:31.382Z,11.30
2022-12-13T14:31:58.924Z,11.40
2022-12-13T14:34:30.995Z,12.67
2022-12-13T14:37:03.915Z,12.60
2022-12-13T14:39:34.623Z,12.50
2022-12-13T14:42:21.311Z,12.53
2022-12-13T14:44:48.509Z,12.37
2022-12-13T14:47:17.701Z,11.87
2022-12-13T14:49:50.621Z,11.57
2022-12-13T14:52:33.433Z,11.70
2022-12-13T14:55:04.673Z,12.60
2022-12-13T14:57:35.197Z,12.53
2022-12-13T15:00:26.497Z,11.60
2022-12-13T15:02:57.146Z,12.13
2022-12-13T15:05:28.588Z,12.87
2022-12-13T15:07:57.160Z,11.73
2022-12-13T15:10:33.167Z,13.20
2022-12-13T15:13:00.364Z,13.10
2022-12-13T15:15:36.696Z,12.67
2022-12-13T15:18:09.717Z,14.93
2022-12-13T15:20:41.716Z,13.43
2022-12-13T15:23:21.156Z,13.03
2022-12-13T15:26:00.399Z,14.23
2022-12-13T15:28:31.964Z,13.73
2022-12-13T15:31:00.631Z,14.13
2022-12-13T15:33:35.162Z,15.13
2022-12-13T15:36:11.036Z,15.80
2022-12-13T15:38:47.447Z,15.17
2022-12-13T15:41:19.569Z,18.60
2022-12-13T15:43:51.072Z,19.20
2022-12-13T15:46:39.451Z,17.43
2022-12-13T15:49:48.026Z,17.13
2022-12-13T15:52:15.141Z,16.47
2022-12-13T15:54:55.208Z,16.97
2022-12-13T15:57:27.499Z,17.10
2022-12-13T16:00:16.703Z,17.07
2022-12-13T16:02:58.378Z,19.23
2022-12-13T16:05:31.894Z,18.70
2022-12-13T16:08:14.217Z,18.77
2022-12-13T16:10:50.136Z,18.87
2022-12-13T16:13:30.785Z,18.93
2022-12-13T16:16:09.149Z,19.57
2022-12-13T16:18:53.639Z,20.07
2022-12-13T16:21:20.974Z,19.13
2022-12-13T16:23:49.276Z,19.83
2022-12-13T16:26:23.002Z,20.33
2022-12-13T16:28:50.306Z,20.77
2022-12-13T16:31:23.104Z,20.23
2022-12-13T16:33:50.611Z,22.50
2022-12-13T16:36:18.059Z,22.17
2022-12-13T16:38:45.734Z,22.20
2022-12-13T16:41:14.583Z,25.77
2022-12-13T16:43:58.298Z,27.73
2022-12-13T16:47:16.102Z,31.97
2022-12-13T16:49:23.665Z,27.07
2022-12-13T16:51:53.272Z,23.37
2022-12-13T16:54:22.373Z,23.83
2022-12-13T16:56:50.574Z,23.57
2022-12-13T16:59:22.222Z,24.50
2022-12-13T17:01:50.274Z,23.77
2022-12-13T17:04:21.619Z,24.73
2022-12-13T17:06:50.303Z,25.50
2022-12-13T17:09:18.624Z,26.10
2022-12-13T17:11:45.940Z,26.70
2022-12-13T17:14:13.118Z,24.97
2022-12-13T17:16:40.345Z,30.50
2022-12-13T17:19:07.534Z,30.37
2022-12-13T17:21:34.975Z,30.17
2022-12-13T17:24:03.035Z,29.43
2022-12-13T17:26:30.335Z,30.20
2022-12-13T17:28:57.538Z,35.60
2022-12-13T17:31:28.100Z,34.53
2022-12-13T17:34:00.641Z,29.37
2022-12-13T17:36:27.967Z,27.43
2022-12-13T17:38:55.131Z,30.77
2022-12-13T17:41:22.962Z,28.50
2022-12-13T17:43:51.232Z,26.90
2022-12-13T17:46:19.151Z,26.43
2022-12-13T17:48:46.685Z,27.53
2022-12-13T17:51:14.835Z,26.33
2022-12-13T17:53:44.005Z,26.93
2022-12-13T17:56:15.173Z,28.17
2022-12-13T17:58:42.948Z,27.83
2022-12-13T18:01:22.114Z,26.73
2022-12-13T18:03:52.499Z,28.80
2022-12-13T18:06:20.145Z,27.63
2022-12-13T18:08:47.912Z,28.47
2022-12-13T18:11:32.782Z,27.93
2022-12-13T18:14:02.076Z,27.03
2022-12-13T18:16:36.413Z,28.97
2022-12-13T18:19:07.535Z,28.03
2022-12-13T18:21:36.874Z,29.07
2022-12-13T18:24:06.129Z,29.60
2022-12-13T18:26:34.317Z,30.33
2022-12-13T18:29:02.042Z,31.10
2022-12-13T18:31:29.372Z,31.10
2022-12-13T18:33:56.839Z,28.47
2022-12-13T18:36:25.320Z,28.40
2022-12-13T18:38:52.818Z,31.00
2022-12-13T18:41:28.036Z,29.83
2022-12-13T18:44:01.895Z,30.13
2022-12-13T18:46:31.443Z,34.40
2022-12-13T18:48:59.317Z,29.43
2022-12-13T18:51:27.004Z,31.27
2022-12-13T18:53:54.821Z,29.60
2022-12-13T18:56:22.750Z,26.20
2022-12-13T18:58:51.316Z,26.13
2022-12-13T19:01:20.034Z,24.77
2022-12-13T19:03:48.574Z,26.93
2022-12-13T19:06:18.849Z,24.47
2022-12-13T19:08:51.357Z,25.00
2022-12-13T19:11:19.126Z,26.37
2022-12-13T19:13:47.047Z,24.00
2022-12-13T19:16:17.148Z,25.37
2022-12-13T19:18:44.727Z,26.83
2022-12-13T19:21:18.077Z,26.40
2022-12-13T19:23:50.034Z,23.57
2022-12-13T19:26:21.535Z,25.50
2022-12-13T19:28:48.745Z,24.50
2022-12-13T19:31:16.080Z,23.27
2022-12-13T19:33:43.714Z,23.97
2022-12-13T19:36:11.624Z,20.87
2022-12-13T19:38:40.116Z,24.10
2022-12-13T19:41:12.367Z,21.27
2022-12-13T19:43:40.255Z,20.13
2022-12-13T19:46:08.309Z,19.90
2022-12-13T19:48:37.893Z,19.63
2022-12-13T19:51:10.751Z,18.80
2022-12-13T19:53:39.126Z,17.70
2022-12-13T19:56:15.186Z,17.97
2022-12-13T19:58:42.562Z,18.43
2022-12-13T20:01:11.210Z,16.93
2022-12-13T20:03:41.386Z,15.73
2022-12-13T20:06:11.303Z,16.13
2022-12-13T20:08:38.821Z,16.30
2022-12-13T20:11:09.535Z,15.03
2022-12-13T20:13:37.637Z,14.93
2022-12-13T20:16:06.376Z,15.93
2022-12-13T20:18:34.974Z,16.07
2022-12-13T20:21:13.307Z,16.83
2022-12-13T20:23:49.439Z,15.30
2022-12-13T20:26:21.089Z,14.87
2022-12-13T20:28:49.585Z,15.40
2022-12-13T20:31:22.806Z,14.93
2022-12-13T20:33:55.842Z,15.57
2022-12-13T20:36:25.264Z,16.63
2022-12-13T20:38:56.548Z,15.77
2022-12-13T20:41:28.906Z,16.50
2022-12-13T20:43:58.837Z,15.23
2022-12-13T20:46:30.166Z,16.23
2022-12-13T20:49:00.443Z,17.97
2022-12-13T20:51:29.842Z,15.93
2022-12-13T20:53:57.576Z,16.37
2022-12-13T20:56:27.825Z,16.43
2022-12-13T20:58:57.664Z,18.47
2022-12-13T21:01:27.844Z,17.33
2022-12-13T21:03:58.480Z,17.30
2022-12-13T21:06:27.354Z,18.10
2022-12-13T21:08:55.193Z,17.50
2022-12-13T21:11:26.844Z,17.07
2022-12-13T21:14:07.531Z,18.47
2022-12-13T21:16:42.077Z,18.10
2022-12-13T21:19:12.038Z,17.20
2022-12-13T21:21:39.425Z,18.17
2022-12-13T21:24:07.282Z,17.87
2022-12-13T21:26:35.974Z,17.00
2022-12-13T21:29:06.524Z,17.50
2022-12-13T21:31:35.778Z,17.07
2022-12-13T21:34:05.166Z,15.97
2022-12-13T21:36:38.050Z,15.17
2022-12-13T21:39:16.517Z,15.07
2022-12-13T21:41:44.349Z,15.03
2022-12-13T21:44:13.522Z,15.37
2022-12-13T21:47:10.668Z,14.67
2022-12-13T21:49:29.033Z,15.50
2022-12-13T21:51:56.250Z,16.10
2022-12-13T21:54:23.447Z,15.33
2022-12-13T21:57:09.118Z,14.53
2022-12-13T21:59:36.366Z,14.17
2022-12-13T22:02:16.527Z,14.07
2022-12-13T22:04:55.890Z,14.20
2022-12-13T22:07:28.815Z,14.37
2022-12-13T22:09:56.759Z,14.77
2022-12-13T22:12:25.184Z,14.20
2022-12-13T22:14:53.350Z,15.00
2022-12-13T22:17:31.289Z,14.83
2022-12-13T22:20:03.715Z,14.57
2022-12-13T22:22:31.445Z,13.70
2022-12-13T22:24:58.686Z,13.43
2022-12-13T22:27:26.327Z,15.23
2022-12-13T22:29:58.140Z,14.33
2022-12-13T22:32:27.359Z,15.07
2022-12-13T22:34:54.808Z,14.27
2022-12-13T22:37:22.651Z,13.87
2022-12-13T22:39:50.171Z,13.93
2022-12-13T22:42:17.386Z,14.17
2022-12-13T22:44:44.763Z,14.67
2022-12-13T22:47:11.951Z,13.70
2022-12-13T22:49:39.884Z,13.97
2022-12-13T22:52:08.231Z,15.23
2022-12-13T22:54:35.746Z,15.33
2022-12-13T22:57:03.163Z,14.47
2022-12-13T22:59:30.497Z,14.50
2022-12-13T23:02:02.448Z,15.07
2022-12-13T23:04:32.883Z,14.60
2022-12-13T23:07:00.152Z,15.60
2022-12-13T23:09:27.355Z,14.90
2022-12-13T23:12:13.424Z,15.67
2022-12-13T23:14:40.749Z,15.07
2022-12-13T23:17:08.206Z,15.60
2022-12-13T23:19:50.520Z,15.30
2022-12-13T23:22:25.464Z,15.07
2022-12-13T23:24:53.423Z,16.07
2022-12-13T23:27:22.499Z,15.23
2022-12-13T23:29:50.158Z,15.20
2022-12-13T23:32:17.458Z,16.20
2022-12-13T23:34:44.764Z,16.00
2022-12-13T23:37:11.922Z,15.40
2022-12-13T23:39:39.119Z,16.80
2022-12-13T23:42:06.421Z,16.33
2022-12-13T23:44:33.704Z,16.00
2022-12-13T23:47:00.872Z,17.70
2022-12-13T23:49:29.053Z,16.37
2022-12-13T23:51:56.206Z,16.23
2022-12-13T23:54:23.435Z,15.90
2022-12-13T23:56:50.745Z,15.83
2022-12-13T23:59:18.774Z,15.93
